sensor_id;sensor_type;location;lat;lon;timestamp;pressure;altitude;pressure_sealevel;temperature;humidity
10718;BME280;13513;42.700;23.124;2022-10-13T00:02:29;93682.99;;;9.51;100.00
10718;BME280;13513;42.700;23.124;2022-10-13T00:05:00;93684.24;;;9.49;100.00
10718;BME280;13513;42.700;23.124;2022-10-13T00:07:30;93679.03;;;9.51;100.00
10718;BME280;13513;42.700;23.124;2022-10-13T00:09:59;93677.88;;;9.38;100.00
10718;BME280;13513;42.700;23.124;2022-10-13T00:12:33;93677.73;;;9.42;100.00
10718;BME280;13513;42.700;23.124;2022-10-13T00:15:02;93674.28;;;9.33;100.00
10718;BME280;13513;42.700;23.124;2022-10-13T00:17:34;93675.90;;;9.25;100.00
10718;BME280;13513;42.700;23.124;2022-10-13T00:20:06;93666.53;;;9.29;100.00
10718;BME280;13513;42.700;23.124;2022-10-13T00:22:37;93668.14;;;9.21;100.00
10718;BME280;13513;42.700;23.124;2022-10-13T00:25:08;93663.94;;;9.13;100.00
10718;BME280;13513;42.700;23.124;2022-10-13T00:27:37;93659.78;;;9.06;100.00
10718;BME280;13513;42.700;23.124;2022-10-13T00:30:08;93661.55;;;9.12;100.00
10718;BME280;13513;42.700;23.124;2022-10-13T00:32:40;93660.59;;;9.15;100.00
10718;BME280;13513;42.700;23.124;2022-10-13T00:35:10;93656.84;;;9.14;100.00
10718;BME280;13513;42.700;23.124;2022-10-13T00:37:41;93659.77;;;9.15;100.00
10718;BME280;13513;42.700;23.124;2022-10-13T00:40:12;93650.86;;;9.16;100.00
10718;BME280;13513;42.700;23.124;2022-10-13T00:42:43;93652.30;;;9.03;100.00
10718;BME280;13513;42.700;23.124;2022-10-13T00:45:24;93646.52;;;9.12;100.00
10718;BME280;13513;42.700;23.124;2022-10-13T00:47:56;93646.17;;;9.09;100.00
10718;BME280;13513;42.700;23.124;2022-10-13T00:50:37;93646.00;;;9.04;100.00
10718;BME280;13513;42.700;23.124;2022-10-13T00:53:09;93641.39;;;9.08;100.00
10718;BME280;13513;42.700;23.124;2022-10-13T00:55:42;93647.10;;;9.05;100.00
10718;BME280;13513;42.700;23.124;2022-10-13T00:58:15;93643.83;;;9.01;100.00
10718;BME280;13513;42.700;23.124;2022-10-13T01:00:48;93639.66;;;9.02;100.00
10718;BME280;13513;42.700;23.124;2022-10-13T01:03:20;93640.95;;;8.93;100.00
10718;BME280;13513;42.700;23.124;2022-10-13T01:05:52;93640.09;;;8.99;100.00
10718;BME280;13513;42.700;23.124;2022-10-13T01:08:23;93638.63;;;9.03;100.00
10718;BME280;13513;42.700;23.124;2022-10-13T01:17:19;93638.26;;;9.09;100.00
10718;BME280;13513;42.700;23.124;2022-10-13T01:19:35;93635.19;;;9.12;100.00
10718;BME280;13513;42.700;23.124;2022-10-13T01:30:46;93635.96;;;8.85;100.00
10718;BME280;13513;42.700;23.124;2022-10-13T01:33:19;93636.48;;;8.94;100.00
10718;BME280;13513;42.700;23.124;2022-10-13T01:38:53;93637.52;;;8.93;100.00
10718;BME280;13513;42.700;23.124;2022-10-13T01:44:24;93640.88;;;8.91;100.00
10718;BME280;13513;42.700;23.124;2022-10-13T01:46:54;93640.16;;;8.93;100.00
10718;BME280;13513;42.700;23.124;2022-10-13T01:49:27;93637.95;;;8.99;100.00
10718;BME280;13513;42.700;23.124;2022-10-13T01:51:59;93640.88;;;9.00;100.00
10718;BME280;13513;42.700;23.124;2022-10-13T01:54:30;93638.48;;;8.98;100.00
10718;BME280;13513;42.700;23.124;2022-10-13T01:57:02;93639.13;;;8.94;100.00
10718;BME280;13513;42.700;23.124;2022-10-13T01:59:33;93637.06;;;8.96;100.00
10718;BME280;13513;42.700;23.124;2022-10-13T02:02:17;93629.76;;;8.98;100.00
10718;BME280;13513;42.700;23.124;2022-10-13T02:04:55;93634.95;;;9.04;100.00
10718;BME280;13513;42.700;23.124;2022-10-13T02:07:33;93625.73;;;9.04;100.00
10718;BME280;13513;42.700;23.124;2022-10-13T02:10:18;93626.63;;;8.98;100.00
10718;BME280;13513;42.700;23.124;2022-10-13T02:13:01;93621.35;;;8.98;100.00
10718;BME280;13513;42.700;23.124;2022-10-13T02:15:40;93621.63;;;9.08;100.00
10718;BME280;13513;42.700;23.124;2022-10-13T02:18:13;93627.12;;;9.07;100.00
10718;BME280;13513;42.700;23.124;2022-10-13T02:20:46;93620.09;;;9.10;100.00
10718;BME280;13513;42.700;23.124;2022-10-13T02:23:17;93611.97;;;9.11;100.00
10718;BME280;13513;42.700;23.124;2022-10-13T02:25:49;93612.85;;;9.14;100.00
10718;BME280;13513;42.700;23.124;2022-10-13T02:28:20;93617.09;;;9.15;100.00
10718;BME280;13513;42.700;23.124;2022-10-13T02:30:51;93613.94;;;9.07;100.00
10718;BME280;13513;42.700;23.124;2022-10-13T02:33:21;93611.00;;;9.15;100.00
10718;BME280;13513;42.700;23.124;2022-10-13T02:35:52;93608.44;;;9.17;100.00
10718;BME280;13513;42.700;23.124;2022-10-13T02:38:23;93603.55;;;9.21;100.00
10718;BME280;13513;42.700;23.124;2022-10-13T02:40:54;93603.33;;;9.22;100.00
10718;BME280;13513;42.700;23.124;2022-10-13T02:43:25;93600.17;;;9.14;100.00
10718;BME280;13513;42.700;23.124;2022-10-13T02:45:56;93596.56;;;9.17;100.00
10718;BME280;13513;42.700;23.124;2022-10-13T02:48:26;93596.06;;;9.18;100.00
10718;BME280;13513;42.700;23.124;2022-10-13T02:50:57;93593.08;;;9.14;100.00
10718;BME280;13513;42.700;23.124;2022-10-13T02:53:28;93596.81;;;9.16;100.00
10718;BME280;13513;42.700;23.124;2022-10-13T02:55:58;93599.80;;;9.19;100.00
10718;BME280;13513;42.700;23.124;2022-10-13T02:58:32;93592.28;;;9.05;100.00
10718;BME280;13513;42.700;23.124;2022-10-13T03:01:13;93590.96;;;9.05;100.00
10718;BME280;13513;42.700;23.124;2022-10-13T03:03:42;93586.47;;;9.05;100.00
10718;BME280;13513;42.700;23.124;2022-10-13T03:06:13;93587.29;;;9.06;100.00
10718;BME280;13513;42.700;23.124;2022-10-13T03:08:45;93596.02;;;9.06;100.00
10718;BME280;13513;42.700;23.124;2022-10-13T03:11:15;93603.23;;;9.11;100.00
10718;BME280;13513;42.700;23.124;2022-10-13T03:13:46;93598.03;;;9.13;100.00
10718;BME280;13513;42.700;23.124;2022-10-13T03:16:16;93605.59;;;9.10;100.00
10718;BME280;13513;42.700;23.124;2022-10-13T03:18:49;93608.23;;;9.10;100.00
10718;BME280;13513;42.700;23.124;2022-10-13T03:21:21;93606.20;;;9.12;100.00
10718;BME280;13513;42.700;23.124;2022-10-13T03:23:51;93609.91;;;9.13;100.00
10718;BME280;13513;42.700;23.124;2022-10-13T03:26:21;93610.22;;;9.14;100.00
10718;BME280;13513;42.700;23.124;2022-10-13T03:28:52;93605.80;;;9.17;100.00
10718;BME280;13513;42.700;23.124;2022-10-13T03:31:26;93606.90;;;9.19;100.00
10718;BME280;13513;42.700;23.124;2022-10-13T03:33:57;93600.38;;;9.21;100.00
10718;BME280;13513;42.700;23.124;2022-10-13T03:36:28;93606.97;;;9.21;100.00
10718;BME280;13513;42.700;23.124;2022-10-13T03:38:59;93605.96;;;9.22;100.00
10718;BME280;13513;42.700;23.124;2022-10-13T03:41:29;93608.06;;;9.23;100.00
10718;BME280;13513;42.700;23.124;2022-10-13T03:44:02;93611.30;;;9.25;100.00
10718;BME280;13513;42.700;23.124;2022-10-13T03:46:33;93611.80;;;9.24;100.00
10718;BME280;13513;42.700;23.124;2022-10-13T03:49:04;93607.21;;;9.20;100.00
10718;BME280;13513;42.700;23.124;2022-10-13T03:51:34;93604.11;;;9.23;100.00
10718;BME280;13513;42.700;23.124;2022-10-13T03:54:05;93606.75;;;9.23;100.00
10718;BME280;13513;42.700;23.124;2022-10-13T03:56:36;93599.14;;;9.15;100.00
10718;BME280;13513;42.700;23.124;2022-10-13T03:59:09;93599.29;;;9.11;100.00
10718;BME280;13513;42.700;23.124;2022-10-13T04:01:39;93599.72;;;9.08;100.00
10718;BME280;13513;42.700;23.124;2022-10-13T04:04:11;93600.91;;;9.03;100.00
10718;BME280;13513;42.700;23.124;2022-10-13T04:06:42;93604.92;;;9.05;100.00
10718;BME280;13513;42.700;23.124;2022-10-13T04:09:12;93594.45;;;9.08;100.00
10718;BME280;13513;42.700;23.124;2022-10-13T04:11:43;93590.45;;;9.14;100.00
10718;BME280;13513;42.700;23.124;2022-10-13T04:14:13;93588.76;;;9.20;100.00
10718;BME280;13513;42.700;23.124;2022-10-13T04:16:45;93587.57;;;9.25;100.00
10718;BME280;13513;42.700;23.124;2022-10-13T04:19:15;93589.02;;;9.30;100.00
10718;BME280;13513;42.700;23.124;2022-10-13T04:21:46;93586.77;;;9.33;100.00
10718;BME280;13513;42.700;23.124;2022-10-13T04:24:18;93589.30;;;9.31;100.00
10718;BME280;13513;42.700;23.124;2022-10-13T04:26:48;93589.55;;;9.29;100.00
10718;BME280;13513;42.700;23.124;2022-10-13T04:29:19;93586.97;;;9.23;100.00
10718;BME280;13513;42.700;23.124;2022-10-13T04:31:50;93590.80;;;9.18;100.00
10718;BME280;13513;42.700;23.124;2022-10-13T04:34:23;93594.08;;;9.13;100.00
10718;BME280;13513;42.700;23.124;2022-10-13T04:36:56;93588.09;;;9.15;100.00
10718;BME280;13513;42.700;23.124;2022-10-13T04:39:27;93592.05;;;9.15;100.00
10718;BME280;13513;42.700;23.124;2022-10-13T04:41:58;93591.83;;;9.17;100.00
10718;BME280;13513;42.700;23.124;2022-10-13T04:44:29;93583.10;;;9.16;100.00
10718;BME280;13513;42.700;23.124;2022-10-13T04:46:59;93588.22;;;9.20;100.00
10718;BME280;13513;42.700;23.124;2022-10-13T04:49:30;93585.66;;;9.23;100.00
10718;BME280;13513;42.700;23.124;2022-10-13T04:52:01;93584.94;;;9.25;100.00
10718;BME280;13513;42.700;23.124;2022-10-13T04:54:32;93593.26;;;9.31;100.00
10718;BME280;13513;42.700;23.124;2022-10-13T04:57:03;93593.36;;;9.33;100.00
10718;BME280;13513;42.700;23.124;2022-10-13T04:59:34;93590.84;;;9.38;100.00
10718;BME280;13513;42.700;23.124;2022-10-13T05:02:04;93595.75;;;9.44;100.00
10718;BME280;13513;42.700;23.124;2022-10-13T05:04:36;93593.30;;;9.51;100.00
10718;BME280;13513;42.700;23.124;2022-10-13T05:07:07;93595.12;;;9.60;100.00
10718;BME280;13513;42.700;23.124;2022-10-13T05:09:37;93597.67;;;9.66;100.00
10718;BME280;13513;42.700;23.124;2022-10-13T05:12:08;93600.38;;;9.69;100.00
10718;BME280;13513;42.700;23.124;2022-10-13T05:14:40;93603.23;;;9.67;100.00
10718;BME280;13513;42.700;23.124;2022-10-13T05:17:10;93598.23;;;9.77;100.00
10718;BME280;13513;42.700;23.124;2022-10-13T05:19:41;93600.45;;;9.92;100.00
10718;BME280;13513;42.700;23.124;2022-10-13T05:22:12;93600.22;;;9.93;100.00
10718;BME280;13513;42.700;23.124;2022-10-13T05:24:43;93598.41;;;9.94;100.00
10718;BME280;13513;42.700;23.124;2022-10-13T05:27:13;93598.30;;;10.00;100.00
10718;BME280;13513;42.700;23.124;2022-10-13T05:29:44;93599.44;;;10.13;100.00
10718;BME280;13513;42.700;23.124;2022-10-13T05:32:15;93604.47;;;10.24;100.00
10718;BME280;13513;42.700;23.124;2022-10-13T05:34:49;93610.80;;;10.34;100.00
10718;BME280;13513;42.700;23.124;2022-10-13T05:37:21;93617.23;;;10.50;100.00
10718;BME280;13513;42.700;23.124;2022-10-13T05:39:56;93621.23;;;10.61;100.00
10718;BME280;13513;42.700;23.124;2022-10-13T05:42:23;93626.86;;;10.76;100.00
10718;BME280;13513;42.700;23.124;2022-10-13T05:44:55;93631.17;;;10.91;100.00
10718;BME280;13513;42.700;23.124;2022-10-13T05:47:30;93632.58;;;11.08;100.00
10718;BME280;13513;42.700;23.124;2022-10-13T05:50:03;93632.67;;;11.24;100.00
10718;BME280;13513;42.700;23.124;2022-10-13T05:52:34;93632.41;;;11.49;100.00
10718;BME280;13513;42.700;23.124;2022-10-13T05:55:05;93633.59;;;11.81;100.00
10718;BME280;13513;42.700;23.124;2022-10-13T05:57:41;93638.09;;;12.23;100.00
10718;BME280;13513;42.700;23.124;2022-10-13T06:00:13;93633.28;;;12.53;100.00
10718;BME280;13513;42.700;23.124;2022-10-13T06:03:05;93632.84;;;12.91;100.00
10718;BME280;13513;42.700;23.124;2022-10-13T06:05:34;93628.86;;;13.24;100.00
10718;BME280;13513;42.700;23.124;2022-10-13T06:08:06;93626.71;;;13.43;100.00
10718;BME280;13513;42.700;23.124;2022-10-13T06:10:37;93630.34;;;13.58;100.00
10718;BME280;13513;42.700;23.124;2022-10-13T06:13:08;93627.28;;;13.88;100.00
10718;BME280;13513;42.700;23.124;2022-10-13T06:15:38;93619.70;;;14.52;100.00
10718;BME280;13513;42.700;23.124;2022-10-13T06:18:10;93626.75;;;15.38;98.00
10718;BME280;13513;42.700;23.124;2022-10-13T06:20:41;93628.68;;;16.10;89.08
10718;BME280;13513;42.700;23.124;2022-10-13T06:23:11;93627.05;;;16.11;84.46
10718;BME280;13513;42.700;23.124;2022-10-13T06:25:53;93626.38;;;16.53;84.54
10718;BME280;13513;42.700;23.124;2022-10-13T06:28:20;93628.03;;;16.89;82.53
10718;BME280;13513;42.700;23.124;2022-10-13T06:30:53;93629.34;;;16.82;76.80
10718;BME280;13513;42.700;23.124;2022-10-13T06:33:25;93633.58;;;16.48;80.06
10718;BME280;13513;42.700;23.124;2022-10-13T06:35:55;93628.81;;;16.60;79.67
10718;BME280;13513;42.700;23.124;2022-10-13T06:38:26;93631.98;;;16.52;77.29
10718;BME280;13513;42.700;23.124;2022-10-13T06:41:01;93629.80;;;16.34;78.33
10718;BME280;13513;42.700;23.124;2022-10-13T06:43:31;93630.02;;;16.20;77.78
10718;BME280;13513;42.700;23.124;2022-10-13T06:46:02;93625.46;;;16.13;79.26
10718;BME280;13513;42.700;23.124;2022-10-13T06:48:33;93627.09;;;16.14;79.81
10718;BME280;13513;42.700;23.124;2022-10-13T06:51:08;93626.31;;;16.23;79.93
10718;BME280;13513;42.700;23.124;2022-10-13T06:53:39;93623.66;;;16.36;80.50
10718;BME280;13513;42.700;23.124;2022-10-13T06:56:10;93628.55;;;16.74;78.66
10718;BME280;13513;42.700;23.124;2022-10-13T06:58:40;93625.30;;;17.34;73.56
10718;BME280;13513;42.700;23.124;2022-10-13T07:01:12;93632.21;;;17.70;69.36
10718;BME280;13513;42.700;23.124;2022-10-13T07:03:46;93625.00;;;18.29;67.37
10718;BME280;13513;42.700;23.124;2022-10-13T07:06:15;93623.93;;;19.12;62.77
10718;BME280;13513;42.700;23.124;2022-10-13T07:08:46;93616.52;;;19.85;57.49
10718;BME280;13513;42.700;23.124;2022-10-13T07:11:17;93614.02;;;20.57;54.68
10718;BME280;13513;42.700;23.124;2022-10-13T07:13:48;93617.75;;;21.14;51.68
10718;BME280;13513;42.700;23.124;2022-10-13T07:16:19;93619.12;;;21.89;49.80
10718;BME280;13513;42.700;23.124;2022-10-13T07:18:50;93618.11;;;22.52;47.41
10718;BME280;13513;42.700;23.124;2022-10-13T07:21:22;93617.36;;;23.09;46.30
10718;BME280;13513;42.700;23.124;2022-10-13T07:23:53;93617.16;;;23.72;44.72
10718;BME280;13513;42.700;23.124;2022-10-13T07:26:24;93622.47;;;24.36;43.35
10718;BME280;13513;42.700;23.124;2022-10-13T07:28:59;93619.59;;;24.60;42.75
10718;BME280;13513;42.700;23.124;2022-10-13T07:31:29;93613.92;;;24.59;42.63
10718;BME280;13513;42.700;23.124;2022-10-13T07:34:00;93615.02;;;24.69;42.09
10718;BME280;13513;42.700;23.124;2022-10-13T07:36:31;93614.00;;;24.76;42.04
10718;BME280;13513;42.700;23.124;2022-10-13T07:39:03;93612.47;;;24.36;41.96
10718;BME280;13513;42.700;23.124;2022-10-13T07:41:35;93612.39;;;24.19;42.19
10718;BME280;13513;42.700;23.124;2022-10-13T07:44:06;93604.44;;;23.95;42.35
10718;BME280;13513;42.700;23.124;2022-10-13T07:46:37;93608.84;;;23.71;43.74
10718;BME280;13513;42.700;23.124;2022-10-13T07:49:08;93604.58;;;23.48;42.72
10718;BME280;13513;42.700;23.124;2022-10-13T07:51:39;93613.21;;;23.78;42.16
10718;BME280;13513;42.700;23.124;2022-10-13T07:54:10;93609.81;;;23.75;42.35
10718;BME280;13513;42.700;23.124;2022-10-13T07:56:41;93609.37;;;23.40;42.91
10718;BME280;13513;42.700;23.124;2022-10-13T07:59:12;93616.69;;;22.57;44.95
10718;BME280;13513;42.700;23.124;2022-10-13T08:01:43;93618.88;;;21.88;46.94
10718;BME280;13513;42.700;23.124;2022-10-13T08:04:13;93610.54;;;21.28;48.88
10718;BME280;13513;42.700;23.124;2022-10-13T08:06:44;93612.61;;;20.80;50.71
10718;BME280;13513;42.700;23.124;2022-10-13T08:09:15;93609.20;;;20.17;53.69
10718;BME280;13513;42.700;23.124;2022-10-13T08:11:46;93608.03;;;19.23;59.63
10718;BME280;13513;42.700;23.124;2022-10-13T08:14:17;93613.64;;;18.01;66.34
10718;BME280;13513;42.700;23.124;2022-10-13T08:16:48;93613.13;;;17.94;66.62
10718;BME280;13513;42.700;23.124;2022-10-13T08:19:19;93613.16;;;17.84;67.37
10718;BME280;13513;42.700;23.124;2022-10-13T08:21:50;93610.34;;;17.36;70.51
10718;BME280;13513;42.700;23.124;2022-10-13T08:24:21;93607.98;;;17.12;72.04
10718;BME280;13513;42.700;23.124;2022-10-13T08:26:52;93604.50;;;17.11;73.92
10718;BME280;13513;42.700;23.124;2022-10-13T08:29:23;93603.95;;;17.27;74.27
10718;BME280;13513;42.700;23.124;2022-10-13T08:31:54;93600.49;;;18.12;71.16
10718;BME280;13513;42.700;23.124;2022-10-13T08:34:25;93598.42;;;18.86;63.54
10718;BME280;13513;42.700;23.124;2022-10-13T08:36:55;93601.34;;;19.49;58.56
10718;BME280;13513;42.700;23.124;2022-10-13T08:39:26;93595.42;;;19.52;59.07
10718;BME280;13513;42.700;23.124;2022-10-13T08:41:58;93595.52;;;19.68;59.58
10718;BME280;13513;42.700;23.124;2022-10-13T08:44:43;93593.09;;;19.93;55.86
10718;BME280;13513;42.700;23.124;2022-10-13T08:47:19;93587.83;;;20.30;54.27
10718;BME280;13513;42.700;23.124;2022-10-13T08:49:48;93585.98;;;21.16;51.41
10718;BME280;13513;42.700;23.124;2022-10-13T08:52:24;93584.09;;;21.62;49.61
10718;BME280;13513;42.700;23.124;2022-10-13T08:54:59;93587.88;;;21.90;49.64
10718;BME280;13513;42.700;23.124;2022-10-13T08:57:30;93578.86;;;21.84;47.82
10718;BME280;13513;42.700;23.124;2022-10-13T09:00:02;93568.52;;;21.16;50.81
10718;BME280;13513;42.700;23.124;2022-10-13T09:02:32;93571.05;;;21.10;50.81
10718;BME280;13513;42.700;23.124;2022-10-13T09:05:08;93571.14;;;21.21;48.85
10718;BME280;13513;42.700;23.124;2022-10-13T09:07:38;93577.01;;;20.35;51.00
10718;BME280;13513;42.700;23.124;2022-10-13T09:10:10;93575.39;;;20.71;50.63
10718;BME280;13513;42.700;23.124;2022-10-13T09:12:39;93576.83;;;21.33;49.59
10718;BME280;13513;42.700;23.124;2022-10-13T09:15:11;93574.72;;;21.59;48.16
10718;BME280;13513;42.700;23.124;2022-10-13T09:17:42;93569.55;;;21.92;48.16
10718;BME280;13513;42.700;23.124;2022-10-13T09:20:22;93562.89;;;22.01;48.08
10718;BME280;13513;42.700;23.124;2022-10-13T09:23:16;93565.23;;;21.91;48.48
10718;BME280;13513;42.700;23.124;2022-10-13T09:25:51;93557.59;;;22.23;48.17
10718;BME280;13513;42.700;23.124;2022-10-13T09:28:31;93554.97;;;23.13;44.83
10718;BME280;13513;42.700;23.124;2022-10-13T09:31:03;93555.22;;;23.37;45.21
10718;BME280;13513;42.700;23.124;2022-10-13T09:33:37;93552.80;;;23.57;43.75
10718;BME280;13513;42.700;23.124;2022-10-13T09:36:09;93546.76;;;23.71;41.34
10718;BME280;13513;42.700;23.124;2022-10-13T09:38:43;93545.98;;;23.79;41.77
10718;BME280;13513;42.700;23.124;2022-10-13T09:41:20;93546.88;;;23.66;42.07
10718;BME280;13513;42.700;23.124;2022-10-13T09:46:27;93548.82;;;21.63;45.50
10718;BME280;13513;42.700;23.124;2022-10-13T09:51:48;93541.48;;;22.91;43.79
10718;BME280;13513;42.700;23.124;2022-10-13T09:54:40;93534.68;;;24.16;40.89
10718;BME280;13513;42.700;23.124;2022-10-13T09:57:25;93535.63;;;26.25;37.88
10718;BME280;13513;42.700;23.124;2022-10-13T10:00:01;93539.73;;;26.61;36.56
10718;BME280;13513;42.700;23.124;2022-10-13T10:02:34;93530.16;;;26.90;35.15
10718;BME280;13513;42.700;23.124;2022-10-13T10:05:18;93528.59;;;26.89;34.91
10718;BME280;13513;42.700;23.124;2022-10-13T10:07:48;93523.81;;;27.27;34.58
10718;BME280;13513;42.700;23.124;2022-10-13T10:10:28;93530.36;;;25.45;36.24
10718;BME280;13513;42.700;23.124;2022-10-13T10:12:57;93522.02;;;24.42;39.02
10718;BME280;13513;42.700;23.124;2022-10-13T10:15:35;93513.70;;;24.84;38.87
10718;BME280;13513;42.700;23.124;2022-10-13T10:18:47;93516.09;;;24.15;39.43
10718;BME280;13513;42.700;23.124;2022-10-13T10:20:49;93511.56;;;23.46;41.13
10718;BME280;13513;42.700;23.124;2022-10-13T10:26:14;93513.16;;;21.58;45.47
10718;BME280;13513;42.700;23.124;2022-10-13T10:29:01;93505.08;;;21.01;47.50
10718;BME280;13513;42.700;23.124;2022-10-13T10:34:41;93504.12;;;20.60;49.85
10718;BME280;13513;42.700;23.124;2022-10-13T10:37:33;93503.43;;;20.55;49.57
10718;BME280;13513;42.700;23.124;2022-10-13T10:39:59;93491.28;;;20.23;51.14
10718;BME280;13513;42.700;23.124;2022-10-13T10:42:43;93484.02;;;20.42;51.89
10718;BME280;13513;42.700;23.124;2022-10-13T10:45:22;93480.79;;;21.06;48.77
10718;BME280;13513;42.700;23.124;2022-10-13T10:47:58;93478.95;;;21.74;47.76
10718;BME280;13513;42.700;23.124;2022-10-13T10:50:28;93468.36;;;22.95;45.08
10718;BME280;13513;42.700;23.124;2022-10-13T10:53:08;93465.20;;;23.91;42.83
10718;BME280;13513;42.700;23.124;2022-10-13T10:55:54;93471.34;;;23.75;41.48
10718;BME280;13513;42.700;23.124;2022-10-13T10:58:50;93464.23;;;22.32;45.22
10718;BME280;13513;42.700;23.124;2022-10-13T11:01:42;93466.17;;;22.18;45.90
10718;BME280;13513;42.700;23.124;2022-10-13T11:06:49;93446.80;;;22.84;44.51
10718;BME280;13513;42.700;23.124;2022-10-13T11:12:26;93455.27;;;25.17;41.10
10718;BME280;13513;42.700;23.124;2022-10-13T11:15:09;93449.68;;;25.53;40.29
10718;BME280;13513;42.700;23.124;2022-10-13T11:17:41;93454.30;;;24.98;39.12
10718;BME280;13513;42.700;23.124;2022-10-13T11:20:46;93442.03;;;23.43;42.13
10718;BME280;13513;42.700;23.124;2022-10-13T11:25:36;93433.98;;;21.23;47.85
10718;BME280;13513;42.700;23.124;2022-10-13T11:36:45;93410.38;;;22.21;46.14
10718;BME280;13513;42.700;23.124;2022-10-13T11:42:24;93411.01;;;23.12;42.63
10718;BME280;13513;42.700;23.124;2022-10-13T11:45:02;93409.34;;;22.52;43.92
10718;BME280;13513;42.700;23.124;2022-10-13T11:47:45;93401.06;;;23.01;43.90
10718;BME280;13513;42.700;23.124;2022-10-13T11:53:19;93395.13;;;22.60;44.57
10718;BME280;13513;42.700;23.124;2022-10-13T11:58:31;93401.13;;;21.51;48.11
10718;BME280;13513;42.700;23.124;2022-10-13T12:01:05;93398.14;;;20.55;50.04
10718;BME280;13513;42.700;23.124;2022-10-13T12:03:42;93395.56;;;20.18;52.51
10718;BME280;13513;42.700;23.124;2022-10-13T12:06:32;93390.36;;;20.06;52.23
10718;BME280;13513;42.700;23.124;2022-10-13T12:09:04;93386.08;;;20.23;55.64
10718;BME280;13513;42.700;23.124;2022-10-13T12:11:39;93391.64;;;19.55;52.89
10718;BME280;13513;42.700;23.124;2022-10-13T12:14:18;93384.23;;;19.68;53.47
10718;BME280;13513;42.700;23.124;2022-10-13T12:16:54;93386.07;;;19.30;55.99
10718;BME280;13513;42.700;23.124;2022-10-13T12:19:28;93388.83;;;19.25;56.65
10718;BME280;13513;42.700;23.124;2022-10-13T12:22:00;93381.50;;;19.10;57.93
10718;BME280;13513;42.700;23.124;2022-10-13T12:24:30;93391.66;;;19.10;56.46
10718;BME280;13513;42.700;23.124;2022-10-13T12:27:08;93389.68;;;18.97;59.55
10718;BME280;13513;42.700;23.124;2022-10-13T12:29:33;93391.27;;;18.98;56.33
10718;BME280;13513;42.700;23.124;2022-10-13T12:32:47;93382.58;;;19.32;56.56
10718;BME280;13513;42.700;23.124;2022-10-13T12:34:39;93381.81;;;19.48;55.57
10718;BME280;13513;42.700;23.124;2022-10-13T12:37:29;93377.95;;;19.56;57.47
10718;BME280;13513;42.700;23.124;2022-10-13T12:39:59;93369.30;;;19.43;56.16
10718;BME280;13513;42.700;23.124;2022-10-13T12:42:31;93362.48;;;19.51;54.65
10718;BME280;13513;42.700;23.124;2022-10-13T12:45:02;93359.51;;;19.34;56.27
10718;BME280;13513;42.700;23.124;2022-10-13T12:53:17;93355.81;;;19.30;55.45
10718;BME280;13513;42.700;23.124;2022-10-13T12:55:57;93354.91;;;19.55;56.39
10718;BME280;13513;42.700;23.124;2022-10-13T12:58:32;93356.91;;;19.82;57.52
10718;BME280;13513;42.700;23.124;2022-10-13T13:03:44;93363.61;;;20.19;53.08
10718;BME280;13513;42.700;23.124;2022-10-13T13:09:05;93356.84;;;20.22;53.13
10718;BME280;13513;42.700;23.124;2022-10-13T13:11:32;93347.26;;;20.18;53.19
10718;BME280;13513;42.700;23.124;2022-10-13T13:14:39;93345.61;;;20.01;52.07
10718;BME280;13513;42.700;23.124;2022-10-13T13:16:30;93347.26;;;20.18;51.77
10718;BME280;13513;42.700;23.124;2022-10-13T13:19:01;93349.93;;;20.00;54.47
10718;BME280;13513;42.700;23.124;2022-10-13T13:21:32;93348.77;;;19.90;52.66
10718;BME280;13513;42.700;23.124;2022-10-13T13:24:03;93338.58;;;19.54;55.50
10718;BME280;13513;42.700;23.124;2022-10-13T13:26:33;93344.39;;;19.59;54.76
10718;BME280;13513;42.700;23.124;2022-10-13T13:29:07;93339.21;;;19.28;55.80
10718;BME280;13513;42.700;23.124;2022-10-13T13:31:37;93345.06;;;19.09;57.70
10718;BME280;13513;42.700;23.124;2022-10-13T13:34:07;93339.63;;;19.16;55.85
10718;BME280;13513;42.700;23.124;2022-10-13T13:36:38;93342.22;;;19.24;58.65
10718;BME280;13513;42.700;23.124;2022-10-13T13:39:18;93346.28;;;19.19;57.21
10718;BME280;13513;42.700;23.124;2022-10-13T13:41:43;93345.14;;;19.25;54.60
10718;BME280;13513;42.700;23.124;2022-10-13T13:44:14;93344.56;;;19.49;55.03
10718;BME280;13513;42.700;23.124;2022-10-13T13:46:46;93337.16;;;19.59;54.00
10718;BME280;13513;42.700;23.124;2022-10-13T13:49:16;93333.63;;;19.61;54.71
10718;BME280;13513;42.700;23.124;2022-10-13T13:51:47;93344.34;;;19.64;56.21
10718;BME280;13513;42.700;23.124;2022-10-13T13:54:18;93346.79;;;19.60;53.88
10718;BME280;13513;42.700;23.124;2022-10-13T13:56:49;93332.95;;;19.53;56.68
10718;BME280;13513;42.700;23.124;2022-10-13T13:59:20;93331.25;;;18.99;56.26
10718;BME280;13513;42.700;23.124;2022-10-13T14:01:51;93337.45;;;18.97;57.06
10718;BME280;13513;42.700;23.124;2022-10-13T14:04:22;93337.80;;;19.12;57.17
10718;BME280;13513;42.700;23.124;2022-10-13T14:06:53;93329.64;;;19.19;58.86
10718;BME280;13513;42.700;23.124;2022-10-13T14:09:24;93331.26;;;19.20;57.71
10718;BME280;13513;42.700;23.124;2022-10-13T14:11:55;93325.13;;;19.17;60.99
10718;BME280;13513;42.700;23.124;2022-10-13T14:14:28;93330.04;;;19.10;55.88
10718;BME280;13513;42.700;23.124;2022-10-13T14:17:01;93324.97;;;19.09;55.74
10718;BME280;13513;42.700;23.124;2022-10-13T14:19:32;93323.91;;;19.07;57.21
10718;BME280;13513;42.700;23.124;2022-10-13T14:22:04;93318.55;;;19.07;56.65
10718;BME280;13513;42.700;23.124;2022-10-13T14:24:37;93317.98;;;19.10;59.70
10718;BME280;13513;42.700;23.124;2022-10-13T14:27:11;93311.53;;;19.11;60.70
10718;BME280;13513;42.700;23.124;2022-10-13T14:29:41;93310.70;;;18.95;60.56